createdAt,value
2018-10-02T00:00:11.339Z,1999.90
2018-10-02T00:02:39.226Z,1999.90
2018-10-02T00:05:07.351Z,1999.90
2018-10-02T00:07:35.322Z,1999.90
2018-10-02T00:10:03.442Z,1999.90
2018-10-02T00:12:36.882Z,1999.90
2018-10-02T00:15:05.475Z,1999.90
2018-10-02T00:17:33.563Z,1999.90
2018-10-02T00:20:01.919Z,1999.90
2018-10-02T00:22:29.782Z,1999.90
2018-10-02T00:24:57.670Z,1999.90
2018-10-02T00:27:25.542Z,1999.90
2018-10-02T00:29:53.616Z,1999.90
2018-10-02T00:32:21.977Z,1999.90
2018-10-02T00:34:49.896Z,1999.90
2018-10-02T00:37:17.960Z,1999.90
2018-10-02T00:39:46.025Z,1999.90
2018-10-02T00:42:14.075Z,1999.90
2018-10-02T00:44:42.135Z,1999.90
2018-10-02T00:47:10.195Z,1999.90
2018-10-02T00:49:38.262Z,1994.27
2018-10-02T00:52:06.118Z,1996.17
2018-10-02T00:54:33.994Z,1999.90
2018-10-02T00:57:01.867Z,1987.43
2018-10-02T00:59:29.939Z,1999.90
2018-10-02T01:01:58.108Z,1999.90
2018-10-02T01:04:26.147Z,1999.90
2018-10-02T01:06:54.198Z,1999.90
2018-10-02T01:09:22.250Z,1999.90
2018-10-02T01:11:50.400Z,1999.90
2018-10-02T01:14:18.444Z,1995.83
2018-10-02T01:16:46.526Z,1999.90
2018-10-02T01:19:14.668Z,1917.23
2018-10-02T01:21:43.245Z,1999.90
2018-10-02T01:24:11.167Z,1999.90
2018-10-02T01:26:39.170Z,1998.67
2018-10-02T01:29:07.250Z,1999.90
2018-10-02T01:31:35.333Z,1749.67
2018-10-02T01:34:03.413Z,1843.90
2018-10-02T01:36:31.290Z,1693.60
2018-10-02T01:38:59.147Z,1911.13
2018-10-02T01:41:27.208Z,1959.13
2018-10-02T01:43:55.251Z,1956.83
2018-10-02T01:46:23.303Z,1740.77
2018-10-02T01:48:51.163Z,1952.17
2018-10-02T01:51:19.276Z,1754.87
2018-10-02T01:53:47.327Z,1888.77
2018-10-02T01:56:15.379Z,1812.87
2018-10-02T01:58:43.427Z,1999.67
2018-10-02T02:01:11.475Z,1850.43
2018-10-02T02:03:39.528Z,1625.10
2018-10-02T02:06:07.576Z,1655.50
2018-10-02T02:08:35.606Z,1992.97
2018-10-02T02:11:03.685Z,1956.17
2018-10-02T02:13:31.850Z,1999.90
2018-10-02T02:16:00.201Z,1999.90
2018-10-02T02:18:28.304Z,1999.90
2018-10-02T02:20:56.367Z,1984.07
2018-10-02T02:23:24.406Z,1999.90
2018-10-02T02:25:52.430Z,1999.90
2018-10-02T02:28:20.306Z,1711.90
2018-10-02T02:30:48.213Z,1568.87
2018-10-02T02:33:16.091Z,1702.13
2018-10-02T02:35:44.194Z,1340.73
2018-10-02T02:38:12.253Z,1534.27
2018-10-02T02:40:40.307Z,1683.77
2018-10-02T02:43:08.383Z,1798.07
2018-10-02T02:45:36.425Z,1719.53
2018-10-02T02:48:09.934Z,1494.03
2018-10-02T02:50:43.262Z,1445.00
2018-10-02T02:53:13.958Z,1266.87
2018-10-02T02:55:41.898Z,1252.27
2018-10-02T02:58:09.777Z,1305.73
2018-10-02T03:00:37.656Z,1389.23
2018-10-02T03:03:05.549Z,1310.40
2018-10-02T03:05:33.600Z,1421.20
2018-10-02T03:08:01.666Z,1518.53
2018-10-02T03:10:29.726Z,1938.40
2018-10-02T03:12:57.838Z,1990.77
2018-10-02T03:15:25.902Z,1936.93
2018-10-02T03:17:54.160Z,1986.30
2018-10-02T03:20:22.022Z,1999.90
2018-10-02T03:22:49.902Z,1527.40
2018-10-02T03:25:17.781Z,1442.23
2018-10-02T03:27:45.851Z,1959.87
2018-10-02T03:30:13.902Z,1891.57
2018-10-02T03:32:41.992Z,1972.13
2018-10-02T03:35:10.038Z,1466.47
2018-10-02T03:37:38.144Z,1999.90
2018-10-02T03:40:07.028Z,1960.97
2018-10-02T03:42:34.898Z,1601.47
2018-10-02T03:45:02.765Z,1084.20
2018-10-02T03:47:30.625Z,1282.33
2018-10-02T03:49:58.678Z,966.13
2018-10-02T03:52:26.745Z,874.23
2018-10-02T03:54:54.787Z,907.67
2018-10-02T03:57:22.886Z,875.00
2018-10-02T03:59:51.073Z,875.53
2018-10-02T04:02:18.952Z,882.77
2018-10-02T04:04:47.018Z,818.80
2018-10-02T04:07:14.880Z,879.87
2018-10-02T04:09:42.926Z,1011.77
2018-10-02T04:12:10.977Z,1007.70
2018-10-02T04:14:39.018Z,761.97
2018-10-02T04:17:07.090Z,1174.03
2018-10-02T04:19:34.968Z,893.93
2018-10-02T04:22:02.842Z,959.07
2018-10-02T04:24:30.890Z,721.40
2018-10-02T04:26:59.186Z,707.37
2018-10-02T04:29:27.041Z,942.70
2018-10-02T04:31:54.902Z,1792.80
2018-10-02T04:34:22.769Z,1999.90
2018-10-02T04:36:50.621Z,815.60
2018-10-02T04:39:18.543Z,1044.30
2018-10-02T04:41:46.362Z,718.90
2018-10-02T04:44:14.234Z,1321.30
2018-10-02T04:46:42.101Z,1448.37
2018-10-02T04:49:10.158Z,1485.80
2018-10-02T04:51:38.020Z,1372.07
2018-10-02T04:54:05.881Z,947.00
2018-10-02T04:56:33.733Z,996.70
2018-10-02T04:59:01.602Z,1118.50
2018-10-02T05:01:29.457Z,902.97
2018-10-02T05:03:57.510Z,1093.67
2018-10-02T05:06:25.553Z,1200.57
2018-10-02T05:08:53.547Z,1554.17
2018-10-02T05:11:22.174Z,1501.57
2018-10-02T05:13:50.219Z,1624.10
2018-10-02T05:16:18.252Z,1512.63
2018-10-02T05:18:46.342Z,1959.80
2018-10-02T05:21:14.439Z,1553.13
2018-10-02T05:23:42.526Z,1375.77
2018-10-02T05:26:10.574Z,1999.90
2018-10-02T05:28:38.673Z,1999.90
2018-10-02T05:31:06.719Z,1634.37
2018-10-02T05:33:34.753Z,1999.90
2018-10-02T05:36:02.599Z,1573.03
2018-10-02T05:38:30.639Z,1605.73
2018-10-02T05:40:58.490Z,1627.60
2018-10-02T05:43:26.559Z,1291.57
2018-10-02T05:45:54.422Z,1583.47
2018-10-02T05:48:22.290Z,1702.93
2018-10-02T05:50:50.166Z,1547.33
2018-10-02T05:53:18.058Z,1339.53
2018-10-02T05:55:45.907Z,1999.90
2018-10-02T05:58:13.844Z,1313.57
2018-10-02T06:00:41.904Z,1637.23
2018-10-02T06:03:10.066Z,1375.77
2018-10-02T06:05:38.107Z,1999.90
2018-10-02T06:08:06.391Z,1999.90
2018-10-02T06:10:34.255Z,1999.90
2018-10-02T06:13:02.284Z,1518.77
2018-10-02T06:15:30.158Z,1647.17
2018-10-02T06:17:58.203Z,1776.63
2018-10-02T06:20:26.230Z,1999.90
2018-10-02T06:22:54.412Z,1999.90
2018-10-02T06:25:22.314Z,1999.90
2018-10-02T06:27:50.178Z,1999.90
2018-10-02T06:30:18.124Z,1999.90
2018-10-02T06:32:46.182Z,1999.90
2018-10-02T06:35:14.195Z,1995.50
2018-10-02T06:37:42.242Z,1999.90
2018-10-02T06:40:10.304Z,1073.00
2018-10-02T06:42:38.351Z,1275.57
2018-10-02T06:45:06.859Z,988.23
2018-10-02T06:47:34.915Z,593.87
2018-10-02T06:50:02.975Z,1718.73
2018-10-02T06:52:31.200Z,752.63
2018-10-02T06:54:59.091Z,1314.37
2018-10-02T06:57:27.156Z,1068.33
2018-10-02T06:59:55.214Z,927.13
2018-10-02T07:02:23.334Z,1113.73
2018-10-02T07:04:51.350Z,1386.93
2018-10-02T07:07:19.216Z,678.47
2018-10-02T07:09:47.274Z,774.90
2018-10-02T07:12:15.315Z,676.80
2018-10-02T07:14:43.254Z,669.53
2018-10-02T07:17:11.093Z,573.23
2018-10-02T07:19:39.006Z,1549.27
2018-10-02T07:22:07.050Z,941.43
2018-10-02T07:24:35.110Z,625.63
2018-10-02T07:27:03.049Z,788.27
2018-10-02T07:29:31.042Z,707.93
2018-10-02T07:31:59.091Z,708.00
2018-10-02T07:34:27.248Z,772.07
2018-10-02T07:36:55.359Z,1305.50
2018-10-02T07:39:23.174Z,1858.37
2018-10-02T07:41:51.265Z,1981.50
2018-10-02T07:44:19.291Z,1296.20
2018-10-02T07:46:47.351Z,1382.30
2018-10-02T07:49:15.408Z,769.70
2018-10-02T07:51:43.285Z,501.37
2018-10-02T07:54:11.170Z,717.83
2018-10-02T07:56:39.070Z,682.90
2018-10-02T07:59:06.890Z,515.03
2018-10-02T08:01:34.942Z,412.67
2018-10-02T08:04:02.807Z,469.80
2018-10-02T08:06:30.675Z,780.47
2018-10-02T08:08:58.573Z,287.33
2018-10-02T08:11:26.633Z,1129.23
2018-10-02T08:13:54.659Z,782.70
2018-10-02T08:16:22.536Z,702.37
2018-10-02T08:18:50.395Z,504.97
2018-10-02T08:21:18.441Z,793.43
2018-10-02T08:23:46.500Z,1471.00
2018-10-02T08:26:14.562Z,1183.27
2018-10-02T08:28:42.622Z,405.97
2018-10-02T08:31:10.487Z,426.20
2018-10-02T08:33:38.359Z,481.17
2018-10-02T08:36:06.531Z,1415.27
2018-10-02T08:38:34.626Z,787.33
2018-10-02T08:41:02.627Z,607.17
2018-10-02T08:43:30.732Z,790.50
2018-10-02T08:45:58.734Z,1411.50
2018-10-02T08:48:26.779Z,917.10
2018-10-02T08:50:54.845Z,353.57
2018-10-02T08:53:22.944Z,1009.37
2018-10-02T08:55:50.807Z,860.60
2018-10-02T08:58:18.662Z,646.37
2018-10-02T09:00:46.613Z,523.70
2018-10-02T09:03:14.505Z,596.13
2018-10-02T09:05:42.495Z,320.70
2018-10-02T09:08:10.567Z,1649.80
2018-10-02T09:10:38.635Z,1264.27
2018-10-02T09:13:06.702Z,1220.67
2018-10-02T09:15:34.826Z,1110.97
2018-10-02T09:18:02.830Z,1147.90
2018-10-02T09:20:30.722Z,1006.57
2018-10-02T09:22:58.591Z,319.57
2018-10-02T09:25:26.671Z,885.47
2018-10-02T09:27:54.790Z,1015.67
2018-10-02T09:30:28.326Z,689.73
2018-10-02T09:33:01.670Z,402.87
2018-10-02T09:35:35.002Z,939.07
2018-10-02T09:38:08.492Z,449.20
2018-10-02T09:40:41.931Z,858.07
2018-10-02T09:43:15.385Z,768.63
2018-10-02T09:45:43.240Z,418.83
2018-10-02T09:48:13.179Z,650.40
2018-10-02T09:50:41.295Z,248.80
2018-10-02T09:53:09.254Z,270.07
2018-10-02T09:55:37.280Z,411.23
2018-10-02T09:58:05.327Z,899.60
2018-10-02T10:00:38.936Z,639.40
2018-10-02T10:03:07.006Z,370.73
2018-10-02T10:05:35.039Z,748.43
2018-10-02T10:08:02.905Z,349.90
2018-10-02T10:10:31.145Z,318.60
2018-10-02T10:12:59.282Z,1016.60
2018-10-02T10:15:27.383Z,1556.43
2018-10-02T10:17:55.277Z,1034.27
2018-10-02T10:20:23.178Z,214.67
2018-10-02T10:22:51.236Z,151.87
2018-10-02T10:25:19.227Z,658.00
2018-10-02T10:27:47.256Z,209.07
2018-10-02T10:30:15.358Z,297.97
2018-10-02T10:32:43.446Z,1392.60
2018-10-02T10:35:11.533Z,1966.47
2018-10-02T10:37:39.478Z,734.73
2018-10-02T10:40:07.579Z,1330.70
2018-10-02T10:42:35.644Z,1999.90
2018-10-02T10:45:03.727Z,396.67
2018-10-02T10:47:31.865Z,863.20
2018-10-02T10:49:59.893Z,659.57
2018-10-02T10:52:28.011Z,625.10
2018-10-02T10:55:01.405Z,1089.90
2018-10-02T10:57:29.342Z,1550.43
2018-10-02T10:59:57.211Z,1209.43
2018-10-02T11:02:25.266Z,1447.37
2018-10-02T11:04:53.366Z,728.43
2018-10-02T11:07:21.243Z,1271.53
2018-10-02T11:09:49.294Z,838.00
2018-10-02T11:12:17.378Z,1357.53
2018-10-02T11:14:45.493Z,1424.00
2018-10-02T11:17:14.094Z,444.70
2018-10-02T11:19:42.000Z,504.13
2018-10-02T11:22:09.955Z,414.27
2018-10-02T11:24:37.860Z,453.73
2018-10-02T11:27:05.971Z,1254.53
2018-10-02T11:29:33.897Z,840.30
2018-10-02T11:32:01.886Z,802.83
2018-10-02T11:34:29.959Z,1999.90
2018-10-02T11:36:58.032Z,1999.90
2018-10-02T11:39:26.024Z,1999.90
2018-10-02T11:41:54.104Z,1692.23
2018-10-02T11:44:22.571Z,1889.67
2018-10-02T11:46:50.407Z,1999.90
2018-10-02T11:49:18.464Z,1999.90
2018-10-02T11:51:46.341Z,1999.90
2018-10-02T11:54:14.210Z,1999.90
2018-10-02T11:56:42.098Z,1999.90
2018-10-02T11:59:10.154Z,1999.90
2018-10-02T12:01:38.028Z,1999.90
2018-10-02T12:04:06.087Z,1962.20
2018-10-02T12:06:34.153Z,1726.33
2018-10-02T12:09:02.260Z,1805.97
2018-10-02T12:11:30.305Z,1722.47
2018-10-02T12:13:58.416Z,1639.03
2018-10-02T12:16:26.395Z,1507.97
2018-10-02T12:18:54.443Z,610.27
2018-10-02T12:21:22.506Z,479.33
2018-10-02T12:23:50.588Z,847.33
2018-10-02T12:26:18.506Z,1166.80
2018-10-02T12:28:46.611Z,929.13
2018-10-02T12:31:14.494Z,1029.77
2018-10-02T12:33:42.351Z,1286.53
2018-10-02T12:36:10.427Z,500.13
2018-10-02T12:38:38.557Z,1033.20
2018-10-02T12:41:06.567Z,1826.37
2018-10-02T12:43:34.414Z,1756.50
2018-10-02T12:46:02.472Z,1977.33
2018-10-02T12:48:30.763Z,1808.27
2018-10-02T12:50:58.830Z,1999.90
2018-10-02T12:53:26.855Z,1999.90
2018-10-02T12:55:54.883Z,1999.90
2018-10-02T12:58:22.940Z,1999.90
2018-10-02T13:00:51.022Z,1999.90
2018-10-02T13:03:19.098Z,1999.90
2018-10-02T13:05:46.963Z,1999.90
2018-10-02T13:08:14.831Z,1999.90
2018-10-02T13:10:42.687Z,1999.90
2018-10-02T13:13:10.580Z,1999.90
2018-10-02T13:15:38.604Z,1999.90
2018-10-02T13:18:06.455Z,1999.90
2018-10-02T13:20:34.486Z,1999.90
2018-10-02T13:23:02.514Z,1999.90
2018-10-02T13:25:30.552Z,1999.90
2018-10-02T13:27:58.580Z,1999.90
2018-10-02T13:30:26.639Z,1999.90
2018-10-02T13:32:54.679Z,1999.90
2018-10-02T13:35:22.717Z,1999.90
2018-10-02T13:37:50.758Z,1999.90
2018-10-02T13:40:18.785Z,1999.90
2018-10-02T13:42:46.806Z,1999.90
2018-10-02T13:45:14.854Z,1999.90
2018-10-02T13:47:42.882Z,1999.90
2018-10-02T13:50:10.763Z,1999.90
2018-10-02T13:52:38.783Z,1999.90
2018-10-02T13:55:06.804Z,1999.90
2018-10-02T13:57:41.194Z,1999.90
2018-10-02T14:00:09.227Z,1999.90
2018-10-02T14:02:37.831Z,1999.90
2018-10-02T14:05:05.754Z,1999.90
2018-10-02T14:07:33.661Z,1999.90
2018-10-02T14:10:01.720Z,1999.90
2018-10-02T14:12:29.645Z,1999.90
2018-10-02T14:14:57.608Z,1999.90
2018-10-02T14:17:25.647Z,1999.90
2018-10-02T14:19:53.684Z,1999.90
2018-10-02T14:22:21.839Z,1999.90
2018-10-02T14:24:49.815Z,1999.90
2018-10-02T14:27:17.769Z,1999.90
2018-10-02T14:29:45.909Z,1999.90
2018-10-02T14:32:13.906Z,1999.90
2018-10-02T14:34:41.805Z,1999.90
2018-10-02T14:37:09.923Z,1999.90
2018-10-02T14:39:37.987Z,1999.90
2018-10-02T14:42:05.865Z,1999.90
2018-10-02T14:44:33.924Z,1999.90
2018-10-02T14:47:01.987Z,1999.90
2018-10-02T14:49:29.961Z,1999.90
2018-10-02T14:51:57.810Z,1999.90
2018-10-02T14:54:25.698Z,1999.90
2018-10-02T14:56:53.763Z,1999.90
2018-10-02T14:59:22.183Z,1999.90
2018-10-02T15:01:49.997Z,1999.90
2018-10-02T15:04:17.877Z,1999.90
2018-10-02T15:06:46.978Z,1999.90
2018-10-02T15:09:15.035Z,1999.90
2018-10-02T15:11:43.186Z,1999.90
2018-10-02T15:14:11.242Z,1999.90
2018-10-02T15:16:39.155Z,1999.90
2018-10-02T15:19:08.905Z,1999.90
2018-10-02T15:21:36.814Z,1999.90
2018-10-02T15:24:05.104Z,1999.90
2018-10-02T15:26:33.139Z,1999.90
2018-10-02T15:29:01.223Z,1999.90
2018-10-02T15:31:29.371Z,1999.90
2018-10-02T15:33:57.219Z,1999.90
2018-10-02T15:36:25.077Z,1999.90
2018-10-02T15:38:52.973Z,1999.90
2018-10-02T15:41:20.849Z,1999.90
2018-10-02T15:43:48.728Z,1999.90
2018-10-02T15:46:16.702Z,1999.90
2018-10-02T15:48:44.764Z,1999.90
2018-10-02T15:51:12.739Z,1957.40
2018-10-02T15:53:40.611Z,1999.90
2018-10-02T15:56:08.519Z,1924.40
2018-10-02T15:58:36.464Z,1999.90
2018-10-02T16:01:04.318Z,1999.90
2018-10-02T16:03:32.232Z,1999.90
2018-10-02T16:06:00.050Z,1999.90
2018-10-02T16:08:27.934Z,1999.90
2018-10-02T16:10:55.782Z,1999.90
2018-10-02T16:13:23.654Z,1999.90
2018-10-02T16:15:52.574Z,1999.90
2018-10-02T16:18:20.510Z,1999.90
2018-10-02T16:20:48.319Z,1999.90
2018-10-02T16:23:16.274Z,1919.17
2018-10-02T16:25:44.174Z,1963.93
2018-10-02T16:28:12.079Z,1999.90
2018-10-02T16:30:39.935Z,1917.10
2018-10-02T16:33:08.935Z,1999.90
2018-10-02T16:35:36.790Z,1999.90
2018-10-02T16:38:04.676Z,1999.90
2018-10-02T16:40:32.543Z,1999.90
2018-10-02T16:43:00.409Z,1999.90
2018-10-02T16:45:28.329Z,1999.90
2018-10-02T16:47:56.326Z,1999.90
2018-10-02T16:50:24.435Z,1949.23
2018-10-02T16:52:52.300Z,1999.90
2018-10-02T16:55:20.173Z,1999.90
2018-10-02T16:57:48.914Z,1999.90
2018-10-02T17:00:16.790Z,1999.90
2018-10-02T17:02:44.684Z,1999.90
2018-10-02T17:05:12.568Z,1999.90
2018-10-02T17:07:40.487Z,1999.90
2018-10-02T17:10:08.417Z,1999.90
2018-10-02T17:12:36.314Z,1982.27
2018-10-02T17:15:04.429Z,1999.90
2018-10-02T17:17:32.298Z,1999.90
2018-10-02T17:20:00.217Z,1999.90
2018-10-02T17:22:28.177Z,1763.13
2018-10-02T17:24:56.058Z,1999.90
2018-10-02T17:27:23.913Z,1989.43
2018-10-02T17:29:51.826Z,1999.90
2018-10-02T17:32:20.006Z,1999.90
2018-10-02T17:34:47.903Z,1880.97
2018-10-02T17:37:15.790Z,1999.90
2018-10-02T17:39:43.674Z,1999.90
2018-10-02T17:42:11.587Z,1999.90
2018-10-02T17:44:39.521Z,1971.60
2018-10-02T17:47:07.396Z,1902.30
2018-10-02T17:49:35.271Z,1999.90
2018-10-02T17:52:03.129Z,1999.90
2018-10-02T17:54:31.031Z,1858.20
2018-10-02T17:56:58.915Z,1886.87
2018-10-02T17:59:26.834Z,1943.27
2018-10-02T18:01:54.734Z,1968.43
2018-10-02T18:04:22.626Z,1999.90
2018-10-02T18:06:50.498Z,1999.90
2018-10-02T18:09:18.357Z,1906.40
2018-10-02T18:11:46.222Z,1999.90
2018-10-02T18:14:14.096Z,1789.20
2018-10-02T18:16:41.975Z,1999.37
2018-10-02T18:19:09.930Z,1930.37
2018-10-02T18:21:37.816Z,1863.07
2018-10-02T18:24:05.681Z,1999.90
2018-10-02T18:26:33.558Z,1999.90
2018-10-02T18:29:01.431Z,1911.33
2018-10-02T18:31:29.277Z,1910.80
2018-10-02T18:33:57.145Z,1828.80
2018-10-02T18:36:25.013Z,1999.90
2018-10-02T18:38:52.926Z,1999.90
2018-10-02T18:41:20.752Z,1945.90
2018-10-02T18:43:48.634Z,1999.90
2018-10-02T18:46:16.497Z,1991.03
2018-10-02T18:48:44.418Z,1823.20
2018-10-02T18:51:12.286Z,1999.90
2018-10-02T18:53:40.152Z,1885.30
2018-10-02T18:56:08.106Z,1999.90
2018-10-02T18:58:35.893Z,1998.37
2018-10-02T19:01:03.759Z,1778.07
2018-10-02T19:03:31.630Z,1998.77
2018-10-02T19:05:59.564Z,1862.27
2018-10-02T19:08:33.080Z,1999.90
2018-10-02T19:11:05.298Z,1999.90
2018-10-02T19:13:33.162Z,1848.63
2018-10-02T19:16:06.663Z,1999.90
2018-10-02T19:18:34.527Z,1999.90
2018-10-02T19:21:02.464Z,1804.00
2018-10-02T19:23:30.418Z,1737.30
2018-10-02T19:26:03.731Z,1984.07
2018-10-02T19:28:31.599Z,1971.83
2018-10-02T19:31:04.993Z,1999.90
2018-10-02T19:33:32.874Z,1843.60
2018-10-02T19:36:00.776Z,1910.17
2018-10-02T19:38:34.083Z,1865.00
2018-10-02T19:41:01.969Z,1999.90
2018-10-02T19:43:29.842Z,1999.90
2018-10-02T19:46:03.243Z,1801.57
2018-10-02T19:48:31.101Z,1965.77
2018-10-02T19:51:04.421Z,1999.90
2018-10-02T19:53:32.508Z,1999.90
2018-10-02T19:56:00.406Z,1844.20
2018-10-02T19:58:28.294Z,1790.33
2018-10-02T20:00:56.224Z,1999.90
2018-10-02T20:03:27.337Z,1973.83
2018-10-02T20:05:55.206Z,1810.37
2018-10-02T20:08:23.091Z,1976.03
2018-10-02T20:10:52.071Z,1892.97
2018-10-02T20:13:20.046Z,1906.43
2018-10-02T20:15:47.917Z,1999.90
2018-10-02T20:18:15.833Z,1947.97
2018-10-02T20:20:43.951Z,1999.90
2018-10-02T20:23:15.079Z,1896.40
2018-10-02T20:25:42.981Z,1999.90
2018-10-02T20:28:10.910Z,1827.33
2018-10-02T20:30:38.827Z,1999.90
2018-10-02T20:33:06.904Z,1999.90
2018-10-02T20:35:34.950Z,1988.07
2018-10-02T20:38:02.817Z,1806.73
2018-10-02T20:40:30.701Z,1999.90
2018-10-02T20:42:58.558Z,1999.90
2018-10-02T20:45:26.427Z,1825.60
2018-10-02T20:47:54.498Z,1844.47
2018-10-02T20:50:22.391Z,1958.87
2018-10-02T20:52:50.274Z,1840.77
2018-10-02T20:55:18.158Z,1834.93
2018-10-02T20:57:46.049Z,1842.80
2018-10-02T21:00:13.984Z,1999.90
2018-10-02T21:02:42.152Z,1787.67
2018-10-02T21:05:10.010Z,1999.90
2018-10-02T21:07:37.890Z,1871.97
2018-10-02T21:10:05.768Z,1824.77
2018-10-02T21:12:33.656Z,1999.90
2018-10-02T21:15:01.511Z,1912.77
2018-10-02T21:17:29.406Z,1962.67
2018-10-02T21:19:57.302Z,1930.67
2018-10-02T21:22:25.157Z,1878.23
2018-10-02T21:24:53.031Z,1999.90
2018-10-02T21:27:20.919Z,1999.90
2018-10-02T21:29:48.786Z,1999.90
2018-10-02T21:32:16.655Z,1626.43
2018-10-02T21:34:44.641Z,1925.47
2018-10-02T21:37:12.427Z,1856.03
2018-10-02T21:39:40.285Z,1966.50
2018-10-02T21:42:08.150Z,1878.27
2018-10-02T21:44:36.004Z,1999.90
2018-10-02T21:47:03.871Z,1999.90
2018-10-02T21:49:31.719Z,1999.90
2018-10-02T21:51:59.688Z,1969.73
2018-10-02T21:54:27.538Z,1999.90
2018-10-02T21:56:55.419Z,1999.90
2018-10-02T21:59:23.267Z,1999.90
2018-10-02T22:01:51.134Z,1856.10
2018-10-02T22:04:18.985Z,1999.90
2018-10-02T22:06:46.867Z,1999.90
2018-10-02T22:09:14.718Z,1999.90
2018-10-02T22:11:42.585Z,1999.90
2018-10-02T22:14:10.426Z,1999.90
2018-10-02T22:16:38.284Z,1999.90
2018-10-02T22:19:06.159Z,1999.90
2018-10-02T22:21:34.038Z,1999.90
2018-10-02T22:24:01.972Z,1999.90
2018-10-02T22:26:29.778Z,1999.90
2018-10-02T22:28:57.671Z,1999.90
2018-10-02T22:31:25.527Z,1999.90
2018-10-02T22:33:53.463Z,1999.90
2018-10-02T22:36:21.384Z,1999.90
2018-10-02T22:38:49.295Z,1999.90
2018-10-02T22:41:17.218Z,1999.90
2018-10-02T22:43:45.159Z,1999.90
2018-10-02T22:46:13.040Z,1999.90
2018-10-02T22:48:40.914Z,1999.90
2018-10-02T22:51:08.781Z,1999.90
2018-10-02T22:53:36.672Z,1999.90
2018-10-02T22:56:04.545Z,1999.90
2018-10-02T22:58:32.435Z,1999.90
2018-10-02T23:01:00.305Z,1999.90
2018-10-02T23:03:28.170Z,1999.90
2018-10-02T23:05:56.363Z,1999.90
2018-10-02T23:08:24.341Z,1999.90
2018-10-02T23:10:52.202Z,1999.90
2018-10-02T23:13:20.072Z,1999.90
2018-10-02T23:15:47.925Z,1999.90
2018-10-02T23:18:15.794Z,1999.90
2018-10-02T23:20:43.654Z,1999.90
2018-10-02T23:23:11.541Z,1999.90
2018-10-02T23:25:39.390Z,1999.90
2018-10-02T23:28:07.255Z,1999.90
2018-10-02T23:30:35.163Z,1999.90
2018-10-02T23:33:03.026Z,1999.90
2018-10-02T23:35:30.894Z,1999.90
2018-10-02T23:37:58.877Z,1999.90
2018-10-02T23:40:26.999Z,1999.90
2018-10-02T23:42:54.882Z,1999.90
2018-10-02T23:45:22.746Z,1999.90
2018-10-02T23:47:50.650Z,1999.90
2018-10-02T23:50:18.525Z,1999.90
2018-10-02T23:52:46.383Z,1999.90
2018-10-02T23:55:14.265Z,1999.90
2018-10-02T23:57:42.126Z,1999.90
